Date,TemperatureHighF,TemperatureAvgF,TemperatureLowF,DewpointHighF,DewpointAvgF,DewpointLowF,HumidityHigh,HumidityAvg,HumidityLow,PressureMaxIn,PressureMinIn,WindSpeedMaxMPH,WindSpeedAvgMPH,GustSpeedMaxMPH,PrecipitationSumIn
2014-1-1,26,18,14,10,2,-2,61,49,40,29.92,29.92,8,4,8,0.00
2014-1-2,32,9,0,4,-2,-20,65,61,29,29.92,29.92,100,6,100,0.00
2014-1-3,11,4,-5,-4,-9,-17,62,55,46,29.92,29.92,13,6,13,0.00
2014-1-4,35,21,-4,8,-1,-16,61,39,25,29.92,29.92,99,7,99,0.00
2014-1-5,43,32,26,38,15,5,85,51,40,29.92,29.92,17,4,17,0.07
2014-1-6,49,36,5,43,26,-32,85,67,10,29.92,29.92,29,10,29,0.18
2014-1-7,8,2,-2,-9,-20,-22,51,34,23,29.92,29.92,25,12,25,0.00
2014-1-8,25,17,0,3,-3,-14,49,39,31,29.92,29.92,11,4,11,0.00
2014-1-9,33,22,15,12,5,2,65,48,32,29.92,29.92,13,4,13,0.00
2014-1-10,39,36,26,28,25,-18,82,66,10,29.92,29.92,99,6,99,0.08
2014-1-11,39,39,39,28,28,28,62,62,62,29.92,29.92,4,4,4,0.08
2014-1-12,39,36,28,28,25,22,76,64,59,29.92,29.92,16,5,16,0.20
2014-1-13,47,41,30,28,26,22,74,55,45,29.92,29.92,14,4,16,0.00
2014-1-14,47,32,0,36,28,20,76,51,46,29.92,29.92,8,2,8,0.07
2014-1-15,39,33,5,29,22,0,82,64,48,29.92,29.92,11,4,11,0.01
2014-1-16,41,31,22,20,14,7,68,52,28,29.92,29.92,10,2,10,0.00
2014-1-17,46,33,26,24,18,15,70,54,32,29.92,29.92,14,3,14,0.00
2014-1-18,32,25,18,26,15,5,79,67,50,29.92,29.92,16,6,18,0.00
2014-1-19,32,26,17,20,12,4,68,55,40,29.92,29.92,23,6,23,0.00
2014-1-20,32,30,22,23,20,11,76,65,60,29.92,29.92,12,3,12,0.00
2014-1-21,32,32,32,21,21,21,64,64,64,29.92,29.92,0,0,10,0.00
2014-1-22,79,69,58,69,59,53,91,73,43,29.92,29.92,12,3,12,0.00
2014-1-23,76,14,4,55,0,-9,86,53,41,29.92,29.92,55,4,55,0.00
2014-1-24,23,13,1,-3,-9,-25,60,39,13,29.92,29.92,99,8,99,0.00
2014-1-25,30,22,12,16,4,-12,72,47,24,29.92,29.92,25,11,25,0.00
2014-1-26,19,13,6,3,-5,-34,57,45,10,29.92,29.92,16,6,21,0.00
2014-1-27,26,15,6,3,-4,-31,57,45,10,29.92,29.92,34,8,34,0.00
2014-1-28,28,5,-5,2,-19,-28,51,31,19,29.92,29.92,99,6,99,0.00
2014-1-29,22,13,-5,-8,-16,-25,47,27,19,29.92,29.92,18,7,18,0.00
2014-1-30,34,23,0,4,-6,-14,49,24,19,29.92,29.92,20,8,20,0.00
2014-1-31,38,32,27,19,11,-1,59,42,28,29.92,29.92,17,5,17,0.00
2014-2-1,42,33,20,28,22,12,77,63,44,29.92,29.92,15,3,15,0.17
2014-2-2,41,33,28,30,24,15,75,68,54,29.92,29.92,14,5,14,0.07
2014-2-3,31,27,24,15,11,9,59,51,45,29.92,29.92,10,6,10,0.00
2014-2-4,37,28,27,12,10,8,48,46,33,29.92,29.92,8,7,8,0.00
2014-2-5,27,19,0,19,12,5,74,52,48,29.92,29.92,19,6,19,24.67
2014-2-6,27,14,-6,9,-1,-18,64,51,33,29.92,29.92,15,3,15,0.00
2014-2-7,25,15,-1,4,-6,-21,57,39,16,29.92,29.92,17,5,23,0.00
2014-2-8,26,9,-10,0,-9,-45,56,44,27,29.92,29.92,12,2,12,0.00
2014-2-9,23,16,1,11,4,-10,67,59,45,29.92,29.92,26,2,26,0.00
2014-2-10,31,18,12,11,5,-3,67,55,33,29.92,29.92,17,5,17,0.00
2014-2-11,21,14,0,6,0,-8,61,48,42,29.92,29.92,14,6,14,0.00
2014-2-12,32,19,-7,1,-4,-48,43,36,10,29.92,29.92,101,6,101,0.01
2014-2-13,29,22,12,18,8,-7,74,55,32,29.92,29.92,11,5,11,0.00
2014-2-14,32,25,23,20,17,16,74,71,61,29.92,29.92,17,7,17,0.00
2014-2-15,34,27,12,9,0,-4,47,30,22,29.92,29.92,14,8,14,0.00
2014-2-16,38,31,20,20,16,9,74,54,41,29.92,29.92,6,2,6,0.00
2014-2-17,42,37,25,30,25,17,77,64,44,29.92,29.92,11,4,11,0.24
2014-2-18,36,31,0,27,19,13,73,58,46,29.92,29.92,21,8,21,0.07
2014-2-19,54,38,32,33,25,-21,75,61,43,29.92,29.92,101,7,101,0.01
2014-2-20,47,35,0,30,26,13,80,58,43,29.92,29.92,13,5,13,0.28
2014-2-21,49,40,35,37,30,19,83,68,41,29.92,29.92,16,4,16,0.41
2014-2-22,51,42,34,25,14,4,55,33,19,29.92,29.92,118,10,118,0.00
2014-2-23,47,39,27,25,18,0,56,44,21,29.92,29.92,123,9,123,0.00
2014-2-24,31,24,18,15,6,-1,65,47,33,29.92,29.92,24,8,24,0.00
2014-2-25,27,20,17,10,2,-2,67,47,30,29.92,29.92,24,5,24,0.00
2014-2-26,19,16,12,6,-10,-16,59,32,20,29.92,29.92,21,9,21,0.00
2014-2-27,27,17,0,9,-4,-16,61,37,21,29.92,29.92,22,13,22,0.00
2014-2-28,27,17,0,3,-4,-14,59,34,22,29.92,29.92,21,8,21,0.01
2014-3-1,23,23,23,-9,-9,-9,23,23,23,29.92,29.92,4,4,4,0.01
2014-3-2,25,18,11,9,0,-9,67,46,23,29.92,29.92,12,6,12,0.02
2014-3-3,19,10,0,1,-5,-11,62,41,27,29.92,29.92,30,6,30,0.01
2014-3-4,78,26,11,65,8,-9,91,47,39,29.92,29.92,12,4,12,0.01
2014-3-5,76,26,16,55,8,4,86,47,39,29.92,29.92,9,7,9,0.00
2014-3-6,24,15,-9,5,-3,-24,55,43,42,29.92,29.92,8,5,8,0.00
2014-3-7,51,27,14,22,8,-5,72,45,28,29.92,29.92,14,4,14,0.01
2014-3-8,41,32,26,27,22,-59,72,65,51,29.92,29.92,15,3,15,0.00
2014-3-9,36,30,23,22,11,-20,70,45,30,29.92,29.92,14,6,14,0.00
2014-3-10,50,41,31,30,24,-15,68,52,10,29.92,29.92,21,3,21,0.00
2014-3-11,60,47,37,31,28,27,70,49,30,29.92,29.92,11,3,11,0.00
2014-3-12,38,26,0,28,19,5,82,74,65,29.92,29.92,21,8,21,0.08
2014-3-13,22,14,8,5,-2,-70,71,51,28,29.92,29.92,34,10,34,0.01
2014-3-14,54,34,14,26,13,-1,51,43,29,29.92,29.92,20,7,20,0.00
2014-3-15,45,39,26,36,25,-12,73,58,10,29.92,29.92,19,9,21,0.07
2014-3-16,26,20,10,12,1,-7,66,42,31,29.92,29.92,17,8,17,0.00
2014-3-17,36,17,10,4,-4,-9,49,40,20,29.92,29.92,10,2,10,0.00
2014-3-18,52,31,11,18,6,-2,60,38,19,29.92,29.92,11,3,11,0.00
2014-3-19,51,39,29,34,20,4,83,51,24,29.92,29.92,77,8,77,0.18
2014-3-20,42,39,38,35,30,27,81,68,62,29.92,29.92,17,9,17,0.01
2014-3-21,45,37,26,29,26,16,69,64,39,29.92,29.92,11,8,11,0.01
2014-3-22,43,37,28,34,24,18,71,59,48,29.92,29.92,26,8,26,0.01
2014-3-23,34,25,20,22,9,-2,68,51,38,29.92,29.92,19,9,19,0.00
2014-3-24,31,23,15,13,4,-3,63,45,31,29.92,29.92,17,6,17,0.00
2014-3-25,57,26,26,52,3,3,86,36,36,29.92,29.92,7,7,11,0.00
2014-3-26,57,25,18,52,5,-34,86,43,25,29.92,29.92,106,12,106,0.00
2014-3-27,38,29,16,14,7,-2,52,40,30,29.92,29.92,14,4,14,0.00
2014-3-28,52,44,38,42,28,13,70,55,36,29.92,29.92,22,7,22,0.21
2014-3-29,45,38,33,34,29,27,80,72,63,29.92,29.92,17,5,17,0.63
2014-3-30,37,33,31,28,27,25,82,76,68,29.92,29.92,22,7,22,0.37
2014-3-31,50,38,29,28,25,21,74,60,39,29.92,29.92,14,5,14,0.01
2014-4-1,63,42,26,35,27,19,76,57,34,29.92,29.92,12,2,12,0.00
2014-4-2,54,44,31,32,28,21,72,54,38,29.92,29.92,13,5,13,0.00
2014-4-3,34,34,31,25,25,23,72,67,67,29.92,29.92,3,3,3,0.00
2014-4-4,34,34,34,25,25,25,67,67,67,29.92,29.92,3,3,3,0.00
2014-4-5,34,34,34,25,25,25,67,67,67,29.92,29.92,3,3,3,0.00
2014-4-6,34,34,34,25,25,25,67,67,67,29.92,29.92,3,3,3,0.00
2014-4-7,34,34,34,25,25,25,67,67,67,29.92,29.92,3,3,3,0.00
2014-4-8,54,41,34,46,33,25,87,71,66,29.92,29.92,23,6,23,1.18
2014-4-9,51,42,32,35,24,11,85,54,21,29.92,29.92,17,5,17,0.00
2014-4-10,74,54,32,43,29,22,74,43,17,29.92,29.92,27,7,27,0.00
2014-4-11,63,53,39,50,38,18,94,62,21,29.92,29.92,11,3,16,0.05
2014-4-12,69,53,37,45,40,34,98,65,34,29.92,29.92,12,3,12,0.00
2014-4-13,87,64,49,52,47,35,87,57,24,29.92,29.92,21,5,21,0.04
2014-4-14,83,67,53,60,54,50,90,66,37,29.92,29.92,17,6,26,0.28
2014-4-15,61,39,28,56,35,19,97,86,68,29.92,29.92,21,8,21,0.31
2014-4-16,41,31,25,20,15,10,75,51,31,29.92,29.92,17,7,17,0.01
2014-4-17,52,41,24,26,21,15,78,47,30,29.92,29.92,18,7,18,0.00
2014-4-18,52,52,52,22,22,22,31,31,31,29.92,29.92,12,12,12,0.00
2014-4-19,52,52,52,22,22,22,31,31,31,29.92,29.92,12,12,12,0.00
2014-4-20,52,52,52,22,22,22,31,31,31,29.92,29.92,12,12,12,0.00
2014-4-21,82,63,52,46,32,22,69,34,13,29.92,29.92,13,6,13,0.00
2014-4-22,62,56,48,57,46,39,90,69,48,29.92,29.92,13,4,13,0.18
2014-4-23,49,43,38,41,35,22,96,75,44,29.92,29.92,19,10,19,0.32
2014-4-24,50,45,35,25,19,17,57,37,26,29.92,29.92,24,10,24,0.00
2014-4-25,68,55,39,47,27,17,93,39,18,29.92,29.92,15,8,15,0.15
2014-4-26,50,47,43,48,42,38,95,84,82,29.92,29.92,19,5,19,0.04
2014-4-27,50,50,50,45,45,45,83,83,83,29.92,29.92,4,4,4,0.04
2014-4-28,61,52,31,45,37,28,93,60,33,29.92,29.92,14,4,14,0.02
2014-4-29,57,50,45,45,41,35,91,73,51,29.92,29.92,25,8,25,0.40
2014-4-30,50,26,0,45,43,39,89,43,74,29.92,29.92,16,3,16,0.12
2014-5-1,64,4,0,56,45,31,96,5,34,29.92,0.00,12,0,12,0.12
2014-5-2,58,42,0,45,40,36,66,39,44,29.92,0.00,16,6,16,0.12
2014-5-3,58,58,58,36,36,36,44,44,44,29.92,29.92,10,10,14,0.00
2014-5-5,62,54,46,47,33,22,91,50,24,29.92,29.92,16,5,16,0.11
2014-5-6,63,52,41,40,35,27,81,56,27,29.92,29.92,16,4,16,0.00
2014-5-7,69,53,35,45,34,27,94,55,22,29.92,29.92,11,2,11,0.00
2014-5-8,77,66,46,53,48,37,76,55,42,29.92,29.92,11,5,11,0.00
2014-5-9,90,77,66,64,58,52,92,54,36,29.92,29.92,27,6,27,0.34
2014-5-10,78,68,59,63,50,22,94,57,18,29.92,29.92,24,7,24,0.08
2014-5-11,80,62,45,46,39,30,89,49,18,29.92,29.92,13,3,13,0.00
2014-5-12,86,73,50,54,50,45,88,49,31,29.92,29.92,7,2,7,0.00
2014-5-13,91,84,66,66,58,52,96,44,31,29.92,29.92,24,3,24,0.74
2014-5-14,82,73,60,66,58,51,96,62,49,29.92,29.92,14,5,14,0.04
2014-5-15,83,73,0,66,61,53,96,58,39,29.92,29.92,34,8,34,0.46
2014-5-16,65,52,43,63,49,40,98,88,73,29.92,29.92,101,4,101,0.92
2014-5-17,54,50,42,44,37,35,97,63,49,29.92,29.92,12,8,12,0.00
2014-5-18,66,54,43,48,38,22,96,60,20,29.92,29.92,14,4,14,0.15
2014-5-19,73,57,40,50,42,37,99,64,29,29.92,29.92,23,4,23,0.05
2014-5-20,77,62,45,53,44,36,97,59,23,29.92,29.92,8,2,8,0.01
2014-5-21,76,65,55,62,55,47,94,71,49,29.92,29.92,15,2,15,0.00
2014-5-22,77,65,55,65,57,50,99,78,50,29.92,29.92,22,4,22,0.07
2014-5-23,59,56,51,53,51,50,96,86,72,29.92,29.92,14,4,14,0.01
2014-5-24,76,62,52,57,53,50,97,75,43,29.92,29.92,11,4,11,0.00
2014-5-25,84,67,48,58,48,39,96,56,25,29.92,29.92,13,3,13,0.00
2014-5-26,87,76,65,55,50,42,59,40,28,29.92,29.92,20,6,20,0.00
2014-5-27,88,76,62,66,60,51,89,59,41,29.92,29.92,13,3,13,0.01
2014-5-28,71,58,52,64,52,49,95,81,68,29.92,29.92,15,6,15,0.00
2014-5-29,76,62,53,56,52,49,93,72,45,29.92,29.92,10,2,10,0.00
2014-5-30,75,66,48,58,53,47,99,66,49,29.92,29.92,11,2,11,0.00
2014-5-31,75,55,48,55,50,47,97,86,49,29.92,29.92,3,1,3,0.00
2014-6-1,58,55,47,56,54,46,99,96,95,29.92,29.92,3,2,3,0.00
2014-6-2,89,70,0,68,60,54,95,64,41,29.92,29.92,9,4,9,0.37
2014-6-3,90,75,63,72,66,50,97,75,40,29.92,29.92,22,3,22,0.09
2014-6-4,76,65,52,58,52,48,94,64,43,29.92,29.92,12,3,12,0.00
2014-6-5,68,60,48,56,49,46,97,68,51,29.92,29.92,11,5,11,0.00
2014-6-6,72,69,59,52,48,47,71,48,41,29.92,29.92,14,9,14,0.00
2014-6-7,72,72,72,47,47,47,41,41,41,29.92,29.92,10,10,10,0.00
2014-6-8,72,71,61,60,48,47,94,46,41,29.92,29.92,10,9,10,0.31
2014-6-9,80,70,61,65,61,59,96,75,53,29.92,29.92,11,3,11,0.01
2014-6-10,83,73,63,67,62,59,88,67,54,29.92,29.92,13,3,13,0.01
2014-6-11,82,70,63,70,64,60,95,82,62,29.92,29.92,59,4,59,0.04
2014-6-12,73,70,64,68,65,60,95,85,81,29.92,29.92,14,4,14,0.12
2014-6-13,73,70,68,68,67,65,96,88,79,29.92,29.92,14,4,14,0.77
2014-6-14,68,68,68,66,66,66,91,91,91,29.92,29.92,3,3,3,0.77
2014-6-15,68,68,68,66,66,66,91,91,91,29.92,29.92,3,3,3,0.77
2014-6-16,68,68,68,66,66,66,91,91,91,29.92,29.92,3,3,3,0.77
2014-6-17,68,36,0,66,66,66,91,48,91,29.92,29.92,3,2,3,0.77
2014-6-18,80,72,68,69,63,10,93,75,10,29.92,29.92,61,6,61,0.00
2014-6-19,78,68,53,65,53,37,95,64,24,29.92,29.92,11,4,11,0.00
2014-6-20,73,62,49,57,47,-5,99,62,10,29.92,29.92,12,3,12,0.00
2014-6-21,80,65,49,56,50,44,98,64,29,29.92,29.92,8,2,8,0.00
2014-6-22,83,68,51,57,50,45,98,61,29,29.92,29.92,8,2,8,0.00
2014-6-23,90,78,53,64,61,52,98,58,40,29.92,29.92,12,3,12,0.00
2014-6-24,90,75,68,72,67,61,96,76,54,29.92,29.92,21,4,21,0.45
2014-6-25,78,70,66,72,68,12,97,92,81,29.92,29.92,9,3,9,0.19
2014-6-26,83,69,62,66,64,59,95,85,48,29.92,29.92,11,4,11,0.00
2014-6-27,91,78,59,68,59,51,98,57,30,29.92,29.92,10,2,10,0.00
2014-6-28,94,77,60,69,64,-48,97,68,37,29.92,29.92,21,2,21,0.00
2014-6-29,94,78,68,73,66,14,93,68,45,29.92,29.92,18,2,18,0.11
2014-6-30,98,82,69,72,69,11,93,67,10,29.92,29.92,8,2,8,0.00
2014-7-1,94,83,23,77,69,-25,89,66,10,30.68,29.92,21,4,21,0.06
2014-7-2,93,79,69,74,69,64,92,74,46,29.92,29.92,12,2,12,0.07
2014-7-3,84,72,67,71,67,65,94,84,56,29.92,29.92,13,2,13,0.24
2014-7-4,76,67,60,65,54,48,95,65,39,29.92,29.92,15,7,15,0.00
2014-7-5,84,71,58,55,52,47,84,54,29,29.92,29.92,12,4,12,0.00
2014-7-6,88,73,55,58,53,48,85,52,30,29.92,29.92,10,4,10,0.00
2014-7-7,83,72,64,70,64,54,91,76,64,29.92,29.92,11,3,11,0.25
2014-7-8,92,78,67,72,67,59,95,70,46,29.92,29.92,17,5,17,0.51
2014-7-9,79,69,60,66,60,52,90,72,54,29.92,29.92,14,3,14,0.05
2014-7-10,79,66,53,61,52,43,99,66,31,29.92,29.92,11,3,11,0.01
2014-7-11,91,70,51,61,55,50,99,65,31,30.37,29.92,11,1,11,0.04
2014-7-12,91,75,61,68,61,52,95,67,40,29.92,29.92,11,2,11,0.00
2014-7-13,85,73,64,74,68,61,94,84,65,29.92,29.92,14,3,14,0.51
2014-7-14,85,75,68,70,65,52,95,74,43,29.92,29.92,9,2,9,0.00
2014-7-15,82,75,67,71,69,66,97,82,64,29.92,29.92,12,3,12,0.46
2014-7-16,80,72,56,70,60,52,96,67,46,29.92,29.92,14,4,14,0.46
2014-7-17,83,66,54,63,56,51,97,74,36,29.92,29.92,10,2,10,0.09
2014-7-18,76,68,54,61,57,-1,99,69,53,29.92,29.92,4,2,4,0.00
2014-7-19,81,75,63,65,60,57,96,61,49,29.92,29.92,4,2,4,0.00
2014-7-20,87,76,67,66,64,60,90,67,43,29.92,29.92,8,1,8,0.01
2014-7-21,93,77,65,70,66,63,94,71,41,29.92,29.92,8,2,8,0.00
2014-7-22,96,80,65,74,68,64,98,71,41,29.92,29.92,7,2,7,0.06
2014-7-23,88,75,70,72,69,67,93,84,55,29.92,29.92,11,5,11,0.37
2014-7-24,70,70,70,68,68,68,92,92,92,29.92,29.92,6,6,6,0.37
2014-7-25,70,70,70,68,68,68,92,92,92,29.92,29.92,6,6,6,0.37
2014-7-26,70,70,70,68,68,68,92,92,92,29.92,29.92,6,6,6,0.37
2014-7-27,70,70,70,68,68,68,92,92,92,29.92,29.92,6,6,6,0.37
2014-7-28,70,65,61,68,63,58,97,92,88,29.92,29.92,17,6,17,0.93
2014-7-29,71,65,54,59,53,51,97,69,49,29.92,29.92,7,4,7,0.01
2014-7-30,80,74,59,61,55,51,98,53,45,29.92,29.92,5,4,5,0.01
2014-7-31,80,80,80,57,57,57,45,45,45,29.92,29.92,4,4,4,0.00
2014-8-1,86,80,59,67,62,57,99,58,45,29.92,29.92,8,2,8,0.67
2014-8-2,86,86,86,65,65,65,50,50,50,29.92,29.92,0,0,0,0.00
2014-8-3,86,82,65,65,65,64,98,60,50,29.92,29.92,4,0,4,0.41
2014-8-4,86,72,64,71,65,36,98,81,45,29.92,29.92,7,1,7,0.01
2014-8-5,81,70,61,70,64,61,98,83,59,29.92,29.92,10,2,10,0.01
2014-8-6,79,69,60,65,58,48,96,71,35,29.92,29.92,11,4,11,0.00
2014-8-7,80,66,0,61,56,2,95,64,10,29.92,29.92,17,3,17,0.00
2014-8-8,78,70,56,62,57,54,96,67,50,29.92,29.92,8,5,8,0.00
2014-8-9,78,78,78,58,58,58,50,50,50,29.92,29.92,8,8,8,0.00
2014-8-10,78,78,78,58,58,58,50,50,50,29.92,29.92,8,8,8,0.00
2014-8-11,91,67,0,68,60,57,83,46,35,29.92,29.92,12,3,12,0.00
2014-8-12,76,70,64,67,63,56,95,78,59,29.92,29.92,17,6,17,0.37
2014-8-13,78,69,59,67,61,15,96,77,52,29.92,29.92,99,5,99,0.17
2014-8-14,70,62,54,55,52,49,91,72,50,29.92,29.92,17,4,17,0.01
2014-8-15,77,63,54,57,52,45,90,69,39,29.92,29.92,12,4,12,0.04
2014-8-16,77,64,53,60,55,50,97,75,49,29.92,29.92,11,2,11,0.41
2014-8-17,76,66,58,62,58,56,97,80,52,29.92,29.92,14,3,14,0.01
2014-8-18,74,63,51,61,54,48,98,76,42,29.92,29.92,11,2,11,0.00
2014-8-19,89,61,-14,65,54,-26,99,81,45,29.92,29.92,10,2,10,0.00
2014-8-20,82,71,63,71,68,61,98,88,66,29.92,29.92,8,1,8,0.18
2014-8-21,88,71,64,75,67,8,99,88,10,29.92,29.92,11,1,11,0.54
2014-8-22,86,72,66,71,67,64,97,84,55,29.92,29.92,10,2,10,0.00
2014-8-23,82,70,63,66,64,60,94,80,53,29.92,29.92,8,1,8,0.00
2014-8-24,90,71,58,68,60,20,99,73,10,29.92,29.92,62,2,62,0.00
2014-8-25,91,73,58,71,61,9,99,72,10,29.92,29.92,69,2,69,0.00
2014-8-26,93,74,59,68,62,18,96,70,10,29.92,29.92,25,2,25,0.00
2014-8-27,81,76,68,69,66,63,91,71,59,29.92,29.92,8,4,8,0.01
2014-8-28,81,72,56,66,52,47,94,50,44,29.92,29.92,14,11,14,0.01
2014-8-29,70,70,70,47,47,47,45,45,45,29.92,29.92,13,13,13,0.00
2014-8-30,70,70,70,47,47,47,45,45,45,29.92,29.92,13,13,13,0.00
2014-8-31,70,70,70,47,47,47,45,45,45,29.92,29.92,13,13,13,0.00
2014-9-1,70,70,70,47,47,47,45,45,45,29.92,29.92,13,13,13,0.00
2014-9-2,70,70,70,47,47,47,45,45,45,29.92,29.92,13,13,13,0.00
2014-9-3,92,74,61,68,58,47,98,60,38,29.92,29.92,13,5,13,0.83
2014-9-4,98,76,61,69,64,60,95,72,39,29.92,29.92,8,2,8,0.00
2014-9-5,99,81,68,73,68,63,93,68,37,29.92,29.92,13,3,13,0.00
2014-9-6,76,69,60,69,63,11,91,82,69,29.92,29.92,16,3,16,0.05
2014-9-7,76,64,53,58,52,46,95,71,35,29.92,29.92,13,3,13,0.00
2014-9-8,87,66,50,62,54,50,99,70,33,29.92,29.92,11,2,11,0.00
2014-9-9,79,68,56,62,58,54,94,72,52,29.92,29.92,14,3,14,0.00
2014-9-10,81,70,61,64,61,58,92,75,55,29.92,29.92,12,4,14,0.00
2014-9-11,73,72,68,71,66,62,93,82,71,29.92,29.92,21,9,21,0.34
2014-9-12,73,73,73,66,66,66,81,81,81,29.92,29.92,11,11,11,0.34
2014-9-13,73,73,73,66,66,66,81,81,81,29.92,29.92,11,11,11,0.34
2014-9-14,73,73,73,66,66,66,81,81,81,29.92,29.92,11,11,11,0.34
2014-9-15,73,73,73,66,66,66,81,81,81,29.92,29.92,11,11,11,0.34
2014-9-16,73,73,73,66,66,66,81,81,81,29.92,29.92,11,11,11,0.34
2014-9-17,77,65,44,66,53,43,99,69,32,29.92,29.92,11,5,11,0.52
2014-9-18,62,53,46,56,48,44,99,84,68,29.92,29.92,15,4,15,0.00
2014-9-19,73,53,36,50,41,30,96,69,21,29.92,29.92,8,2,8,0.00
2014-9-20,81,68,54,61,57,50,88,70,48,29.92,29.92,19,5,24,0.00
2014-9-21,84,69,61,66,58,45,89,68,32,29.92,29.92,21,5,21,0.00
2014-9-22,62,53,44,54,46,40,96,78,50,29.92,29.92,19,6,19,0.00
2014-9-23,80,58,42,54,47,41,97,74,34,29.92,29.92,11,2,11,0.00
2014-9-24,85,64,48,60,53,48,99,73,33,29.92,29.92,11,2,11,0.00
2014-9-25,78,64,51,56,52,50,97,70,44,29.92,29.92,8,1,8,0.00
2014-9-26,80,62,47,64,53,-39,99,77,42,29.92,29.92,11,2,11,0.00
2014-9-27,82,63,49,62,55,49,99,78,42,29.92,29.92,10,2,10,0.00
2014-9-28,86,65,50,64,56,50,99,76,38,29.92,29.92,10,1,10,0.00
2014-9-29,87,67,54,62,57,53,97,74,36,29.92,29.92,8,1,9,0.00
2014-9-30,82,65,54,63,58,53,97,80,45,29.92,29.92,13,2,13,0.00